»·PEaware :: N197AF KBFI-KOLM

N197AF :: KBFI-KOLM

FLIGHT INFORMATION

Flight Status: Arrived
Operator: Privately registered:
United States
More flights under this callsign
Pilot: Cooper L. (8467)
Aircraft: MOONEY M-20 201 202 205 220 ATS MSE
(M20P)
More flights by this aircraft type
Origin: KBFI Boeing Field/King Co Intl
United States
Destination: KOLM Olympia
United States
More flights between these airports :: More routes between these airports
Route:
File this flight plan on PilotEdge
Remarks:
Altitude:
(Current/Filed)
4,500ft
Speed:
(Current/Filed)
195kts
Departed: 23-Dec-17 04:21 PM
Arrived: 23-Dec-17 04:53 PM
Distance/Time
Traveled:
41nm/0:32
Distance/Time
To Go:
Arrived

Flight Plot

Page will automatically refresh every two minutes.

Flight plan parsing failed; only flown route is shown


Map Options




Map Legend


Flown Route
Filed Route
Departure Airport
Arrival Airport
Navaid (VOR, NDB)
Fix

Horizontal Profiles

Position Reports

Time Latitude Longitude Heading Altitude Ground
Speed
23-Dec-17 16:14 47.539445 -122.307133 148 17ft 0kts
23-Dec-17 16:15 47.539445 -122.307133 148 17ft 0kts
23-Dec-17 16:16 47.539444 -122.307132 149 17ft 0kts
23-Dec-17 16:17 47.539444 -122.307132 149 17ft 0kts
23-Dec-17 16:18 47.539444 -122.307132 149 17ft 0kts
23-Dec-17 16:19 47.539444 -122.307132 149 17ft 0kts
23-Dec-17 16:20 47.539444 -122.307132 149 17ft 0kts
23-Dec-17 16:21 47.539335 -122.307128 202 17ft 0kts
23-Dec-17 16:22 47.538113 -122.306724 196 17ft 0kts
23-Dec-17 16:23 47.538113 -122.306724 196 17ft 0kts
23-Dec-17 16:24 47.538113 -122.306724 197 17ft 0kts
23-Dec-17 16:25 47.538113 -122.306724 197 17ft 0kts
23-Dec-17 16:26 47.538102 -122.306730 200 17ft 1kts
23-Dec-17 16:27 47.528958 -122.299596 144 272ft 94kts
23-Dec-17 16:28 47.522675 -122.308843 337 657ft 142kts
23-Dec-17 16:29 47.528584 -122.359821 255 926ft 155kts
23-Dec-17 16:30 47.516171 -122.421610 256 1286ft 154kts
23-Dec-17 16:31 47.505158 -122.476620 256 1929ft 149kts
23-Dec-17 16:32 47.494328 -122.529314 256 2559ft 150kts
23-Dec-17 16:33 47.481805 -122.588952 256 3261ft 152kts
23-Dec-17 16:34 47.468939 -122.649315 256 3963ft 157kts
23-Dec-17 16:35 47.467843 -122.707630 329 4194ft 89kts
23-Dec-17 16:36 47.464246 -122.710434 253 3930ft 92kts
23-Dec-17 16:37 47.464654 -122.735664 275 2950ft 113kts
23-Dec-17 16:38 47.466986 -122.783200 330 1512ft 102kts
23-Dec-17 16:39 47.487171 -122.767890 30 443ft 40kts
23-Dec-17 16:40 47.498774 -122.744049 91 1205ft 117kts
23-Dec-17 16:41 47.471327 -122.756159 264 1135ft 108kts
23-Dec-17 16:42 47.485643 -122.769090 25 443ft 46kts
23-Dec-17 16:43 47.498219 -122.754069 41 1040ft 98kts
23-Dec-17 16:44 47.476835 -122.744466 204 1593ft 144kts
23-Dec-17 16:45 47.430831 -122.780178 202 1599ft 173kts
23-Dec-17 16:46 47.387573 -122.805272 190 2190ft 162kts
23-Dec-17 16:47 47.342145 -122.816661 188 2489ft 169kts
23-Dec-17 16:48 47.296216 -122.824204 188 2486ft 165kts
23-Dec-17 16:49 47.258761 -122.833705 188 2483ft 163kts
23-Dec-17 16:50 47.214091 -122.844521 187 2479ft 162kts
23-Dec-17 16:51 47.169817 -122.855009 187 2469ft 160kts
23-Dec-17 16:52 47.125160 -122.862125 180 2403ft 166kts
23-Dec-17 16:53 47.081726 -122.868314 188 1794ft 150kts
23-Dec-17 16:54 47.039651 -122.880571 189 1577ft 156kts
23-Dec-17 16:55 46.998231 -122.891792 186 1049ft 132kts
23-Dec-17 16:56 46.964856 -122.899008 184 1046ft 126kts
23-Dec-17 16:57 46.942812 -122.912457 339 803ft 80kts
23-Dec-17 16:58 46.963504 -122.906316 13 218ft 62kts
23-Dec-17 16:59 46.967078 -122.904144 89 202ft 0kts
23-Dec-17 17:00 46.967078 -122.904144 89 202ft 0kts
23-Dec-17 17:01 46.967078 -122.904144 89 202ft 0kts
23-Dec-17 17:02 46.967078 -122.904144 89 202ft 0kts
23-Dec-17 17:03 46.967079 -122.904049 90 202ft 6kts
23-Dec-17 17:04 46.969396 -122.900631 12 200ft 17kts
23-Dec-17 17:05 46.972776 -122.895812 76 196ft 9kts
23-Dec-17 17:06 46.972762 -122.895673 127 196ft 0kts

Navigation Log

Ident Type
Flight plan parsing failed, navigation log unavailable